Terminal Aerodrome Forecast
Issued by NWS

Home | Current Version | Previous Version | Text Only | Print | Product List | Glossary On
Versions: 1 2 3 4 5 6 7 8 9 10 11 12 13 14 15 16 17 18 19 20 21 22 23 24
000
FTUS46 KOTX 231130
TAFMWH
TAF
KMWH 231130Z 2312/2412 VRB06KT P6SM SCT040 BKN150
     FM231900 21011KT P6SM VCSH SCT040 SCT100 BKN150
     FM232200 23017G28KT P6SM -TSRA SCT060CB BKN120
     FM240300 25016G24KT P6SM VCSH SCT060 BKN100
     FM240700 23013KT P6SM SCT080=

USA.gov is the U.S. government's official web portal to all federal, state and local government web resources and services.